Time;durP1;ratioP1;P1;durP2;ratioP2;P2;SDS_P1;SDS_P2;PMS_P1;PMS_P2;Temp;Humidity;BMP_temperature;BMP_pressure;BME280_temperature;BME280_humidity;BME280_pressure;Samples;Min_cycle;Max_cycle;Signal;HPM_P1;HPM_P2
2021/03/16 00:00:58;;;;;;;;;;;;;;;;;;4930919;29;20367;-68
2021/03/16 00:03:25;;;;;;;;;;;;;;;;;;4925540;29;19937;-69
2021/03/16 00:05:51;;;;;;;;;;;;;;;;;;4934048;29;19977;-69
2021/03/16 00:08:18;;;;;;;;;;;;;;;;;;4923850;29;20442;-69
2021/03/16 00:10:45;;;;;;;;;;;;;;;;;;4932176;29;19933;-67
2021/03/16 00:13:11;;;;;;;;;;;;;;;;;;4931998;29;19966;-69
2021/03/16 00:15:38;;;;;;;;;;;;;;;;;;4930200;29;20014;-67
2021/03/16 00:18:04;;;;;;;;;;;;;;;;;;4927414;29;20370;-67
2021/03/16 00:20:31;;;;;;;;;;;;;;;;;;4918930;29;20018;-67
2021/03/16 00:22:57;;;;;;;;;;;;;;;;;;4928649;29;19927;-69
2021/03/16 00:25:24;;;;;;;;;;;;;;;;;;4930438;29;19931;-67
2021/03/16 00:27:50;;;;;;;;;;;;;;;;;;4928461;29;19946;-69
2021/03/16 00:30:17;;;;;;;;;;;;;;;;;;4933138;29;19927;-67
2021/03/16 00:32:43;;;;;;;;;;;;;;;;;;4927689;29;20019;-69
2021/03/16 00:35:10;;;;;;;;;;;;;;;;;;4932582;29;20078;-68
2021/03/16 00:37:36;;;;;;;;;;;;;;;;;;4923343;29;19974;-68
2021/03/16 00:40:03;;;;;;;;;;;;;;;;;;4919513;29;19950;-68
2021/03/16 00:42:29;;;;;;;;;;;;;;;;;;4928155;29;19991;-68
2021/03/16 00:44:58;;;;;;;;;;;;;;;;;;4933411;29;20026;-68
2021/03/16 00:47:24;;;;;;;;;;;;;;;;;;4927147;29;19934;-68
2021/03/16 00:49:51;;;;;;;;;;;;;;;;;;4927925;29;20313;-68
2021/03/16 00:52:17;;;;;;;;;;;;;;;;;;4933245;29;20013;-68
2021/03/16 00:54:43;;;;;;;;;;;;;;;;;;4930058;29;19931;-68
2021/03/16 00:57:10;;;;;;;;;;;;;;;;;;4930095;29;19941;-68
2021/03/16 00:59:36;;;;;;;;;;;;;;;;;;4936604;29;19960;-68
2021/03/16 01:02:03;;;;;;;;;;;;;;;;;;4929919;29;20005;-68
2021/03/16 01:04:30;;;;;;;;;;;;;;;;;;4935637;29;19958;-68
2021/03/16 01:06:56;;;;;;;;;;;;;;;;;;4923616;29;19931;-68
2021/03/16 01:09:23;;;;;;;;;;;;;;;;;;4929090;29;19942;-68
2021/03/16 01:11:49;;;;;;;;;;;;;;;;;;4930098;29;19933;-68
2021/03/16 01:14:16;;;;;;;;;;;;;;;;;;4930187;29;19935;-68
2021/03/16 01:16:42;;;;;;;;;;;;;;;;;;4931266;29;20013;-68
2021/03/16 01:19:09;;;;;;;;;;;;;;;;;;4932422;29;19950;-68
2021/03/16 01:21:35;;;;;;;;;;;;;;;;;;4931905;29;19986;-68
2021/03/16 01:24:02;;;;;;;;;;;;;;;;;;4926459;29;19927;-68
2021/03/16 01:26:28;;;;;;;;;;;;;;;;;;4931771;29;20290;-68
2021/03/16 01:28:55;;;;;;;;;;;;;;;;;;4932488;29;20110;-68
2021/03/16 01:31:21;;;;;;;;;;;;;;;;;;4929919;29;20022;-68
2021/03/16 01:33:48;;;;;;;;;;;;;;;;;;4934755;29;19977;-68
2021/03/16 01:36:14;;;;;;;;;;;;;;;;;;4934254;29;19928;-68
2021/03/16 01:38:41;;;;;;;;;;;;;;;;;;4927607;29;20021;-68
2021/03/16 01:41:07;;;;;;;;;;;;;;;;;;4928141;29;20026;-68
2021/03/16 01:43:34;;;;;;;;;;;;;;;;;;4932179;29;20450;-68
2021/03/16 01:46:00;;;;;;;;;;;;;;;;;;4935031;29;19927;-68
2021/03/16 01:48:27;;;;;;;;;;;;;;;;;;4933471;29;20021;-68
2021/03/16 01:50:53;;;;;;;;;;;;;;;;;;4924455;29;19946;-68
2021/03/16 01:53:20;;;;;;;;;;;;;;;;;;4930330;29;19978;-68
2021/03/16 01:55:46;;;;;;;;;;;;;;;;;;4927646;29;19982;-68
2021/03/16 01:58:13;;;;;;;;;;;;;;;;;;4928055;29;19934;-68
2021/03/16 02:00:39;;;;;;;;;;;;;;;;;;4928003;29;19949;-68
2021/03/16 02:03:06;;;;;;;;;;;;;;;;;;4925188;29;19927;-70
2021/03/16 02:05:32;;;;;;;;;;;;;;;;;;4924803;29;19931;-68
2021/03/16 02:07:59;;;;;;;;;;;;;;;;;;4929759;29;19926;-68
2021/03/16 02:10:25;;;;;;;;;;;;;;;;;;4927685;29;19941;-71
2021/03/16 02:12:52;;;;;;;;;;;;;;;;;;4930730;29;19933;-68
2021/03/16 02:15:20;;;;;;;;;;;;;;;;;;4924332;29;20037;-68
2021/03/16 02:17:46;;;;;;;;;;;;;;;;;;4928201;29;20009;-68
2021/03/16 02:20:13;;;;;;;;;;;;;;;;;;4929719;29;20421;-68
2021/03/16 02:22:39;;;;;;;;;;;;;;;;;;4929708;29;20021;-69
2021/03/16 02:25:06;;;;;;;;;;;;;;;;;;4933489;29;19934;-68
2021/03/16 02:27:32;;;;;;;;;;;;;;;;;;4932475;29;19935;-68
2021/03/16 02:29:59;;;;;;;;;;;;;;;;;;4931081;29;19926;-68
2021/03/16 02:32:25;;;;;;;;;;;;;;;;;;4923319;29;20239;-68
2021/03/16 02:34:52;;;;;;;;;;;;;;;;;;4928973;29;19970;-68
2021/03/16 02:37:18;;;;;;;;;;;;;;;;;;4931272;29;19942;-68
2021/03/16 02:39:45;;;;;;;;;;;;;;;;;;4930398;29;19982;-68
2021/03/16 02:42:11;;;;;;;;;;;;;;;;;;4928322;29;19927;-68
2021/03/16 02:44:38;;;;;;;;;;;;;;;;;;4929098;29;20412;-68
2021/03/16 02:47:04;;;;;;;;;;;;;;;;;;4925486;29;19934;-68
2021/03/16 02:49:31;;;;;;;;;;;;;;;;;;4932099;29;19927;-68
2021/03/16 02:51:57;;;;;;;;;;;;;;;;;;4929787;29;19959;-68
2021/03/16 02:54:24;;;;;;;;;;;;;;;;;;4932273;29;19937;-68
2021/03/16 02:56:50;;;;;;;;;;;;;;;;;;4921942;29;19969;-68
2021/03/16 02:59:17;;;;;;;;;;;;;;;;;;4922804;29;20406;-68
2021/03/16 03:01:43;;;;;;;;;;;;;;;;;;4932957;29;19941;-68
2021/03/16 03:04:10;;;;;;;;;;;;;;;;;;4930430;29;19952;-68
2021/03/16 03:06:36;;;;;;;;;;;;;;;;;;4928586;29;19933;-68
2021/03/16 03:09:03;;;;;;;;;;;;;;;;;;4924781;29;19970;-68
2021/03/16 03:11:30;;;;;;;;;;;;;;;;;;4931981;29;19933;-68
2021/03/16 03:13:57;;;;;;;;;;;;;;;;;;4927407;29;19938;-68
2021/03/16 03:16:23;;;;;;;;;;;;;;;;;;4926805;29;20392;-68
2021/03/16 03:18:50;;;;;;;;;;;;;;;;;;4931068;29;19933;-68
2021/03/16 03:21:16;;;;;;;;;;;;;;;;;;4934538;29;20319;-68
2021/03/16 03:23:43;;;;;;;;;;;;;;;;;;4929928;29;19934;-69
2021/03/16 03:26:09;;;;;;;;;;;;;;;;;;4932689;29;20143;-68
2021/03/16 03:28:36;;;;;;;;;;;;;;;;;;4926834;29;19928;-68
2021/03/16 03:31:02;;;;;;;;;;;;;;;;;;4931595;29;19933;-68
2021/03/16 03:33:28;;;;;;;;;;;;;;;;;;4923204;29;19934;-68
2021/03/16 03:35:55;;;;;;;;;;;;;;;;;;4931827;29;19933;-70
2021/03/16 03:38:21;;;;;;;;;;;;;;;;;;4928625;29;19927;-69
2021/03/16 03:40:48;;;;;;;;;;;;;;;;;;4923362;29;19982;-69
2021/03/16 03:43:14;;;;;;;;;;;;;;;;;;4928045;29;19931;-69
2021/03/16 03:45:41;;;;;;;;;;;;;;;;;;4924999;29;19990;-69
2021/03/16 03:48:07;;;;;;;;;;;;;;;;;;4930876;29;19930;-69
2021/03/16 03:50:34;;;;;;;;;;;;;;;;;;4929943;29;19931;-69
2021/03/16 03:53:00;;;;;;;;;;;;;;;;;;4932501;29;20323;-68
2021/03/16 03:55:27;;;;;;;;;;;;;;;;;;4931686;29;19931;-70
2021/03/16 03:57:53;;;;;;;;;;;;;;;;;;4934117;29;19985;-68
2021/03/16 04:00:20;;;;;;;;;;;;;;;;;;4921196;29;19931;-68
2021/03/16 04:02:46;;;;;;;;;;;;;;;;;;4930019;29;19933;-68
2021/03/16 04:05:13;;;;;;;;;;;;;;;;;;4929193;29;20569;-68
2021/03/16 04:07:39;;;;;;;;;;;;;;;;;;4924574;29;19927;-68
2021/03/16 04:10:06;;;;;;;;;;;;;;;;;;4928146;29;20021;-68
2021/03/16 04:12:32;;;;;;;;;;;;;;;;;;4925230;29;19927;-68
2021/03/16 04:14:59;;;;;;;;;;;;;;;;;;4927716;29;19974;-68
2021/03/16 04:17:25;;;;;;;;;;;;;;;;;;4928070;29;19927;-69
2021/03/16 04:19:52;;;;;;;;;;;;;;;;;;4933613;29;19927;-68
2021/03/16 04:22:18;;;;;;;;;;;;;;;;;;4928297;29;19927;-68
2021/03/16 04:24:45;;;;;;;;;;;;;;;;;;4928607;29;19930;-69
2021/03/16 04:27:11;;;;;;;;;;;;;;;;;;4928444;29;19981;-68
2021/03/16 04:29:38;;;;;;;;;;;;;;;;;;4930047;29;20025;-69
2021/03/16 04:32:04;;;;;;;;;;;;;;;;;;4930757;29;20382;-68
2021/03/16 04:34:31;;;;;;;;;;;;;;;;;;4924582;29;20462;-68
2021/03/16 04:36:57;;;;;;;;;;;;;;;;;;4929495;29;19926;-68
2021/03/16 04:39:24;;;;;;;;;;;;;;;;;;4929904;29;19953;-68
2021/03/16 04:41:50;;;;;;;;;;;;;;;;;;4919167;29;19934;-69
2021/03/16 04:44:17;;;;;;;;;;;;;;;;;;4928322;29;20014;-69
2021/03/16 04:46:43;;;;;;;;;;;;;;;;;;4924763;29;19938;-68
2021/03/16 04:49:10;;;;;;;;;;;;;;;;;;4928814;29;19935;-68
2021/03/16 04:51:36;;;;;;;;;;;;;;;;;;4924758;29;19927;-68
2021/03/16 04:54:03;;;;;;;;;;;;;;;;;;4927698;29;19927;-68
2021/03/16 04:56:29;;;;;;;;;;;;;;;;;;4920200;29;20348;-69
2021/03/16 04:58:56;;;;;;;;;;;;;;;;;;4925236;29;19974;-69
2021/03/16 05:01:22;;;;;;;;;;;;;;;;;;4922506;29;19927;-68
2021/03/16 05:03:49;;;;;;;;;;;;;;;;;;4928014;29;20014;-68
2021/03/16 05:06:15;;;;;;;;;;;;;;;;;;4923069;29;19937;-68
2021/03/16 05:08:42;;;;;;;;;;;;;;;;;;4926635;29;20256;-69
2021/03/16 05:11:08;;;;;;;;;;;;;;;;;;4928098;29;19926;-69
2021/03/16 05:13:39;;;;;;;;;;;;;;;;;;4925835;29;19926;-68
2021/03/16 05:16:06;;;;;;;;;;;;;;;;;;4927877;29;20241;-69
2021/03/16 05:18:32;;;;;;;;;;;;;;;;;;4921021;29;20288;-68
2021/03/16 05:20:59;;;;;;;;;;;;;;;;;;4929007;29;19933;-68
2021/03/16 05:23:25;;;;;;;;;;;;;;;;;;4923273;29;20017;-68
2021/03/16 05:25:52;;;;;;;;;;;;;;;;;;4924422;29;19934;-68
2021/03/16 05:28:18;;;;;;;;;;;;;;;;;;4926869;29;19927;-69
2021/03/16 05:30:45;;;;;;;;;;;;;;;;;;4922139;29;20364;-68
2021/03/16 05:33:11;;;;;;;;;;;;;;;;;;4929217;29;19955;-68
2021/03/16 05:35:38;;;;;;;;;;;;;;;;;;4927944;29;19927;-68
2021/03/16 05:38:07;;;;;;;;;;;;;;;;;;4928317;29;19927;-68
2021/03/16 05:40:34;;;;;;;;;;;;;;;;;;4924794;29;19955;-68
2021/03/16 05:43:00;;;;;;;;;;;;;;;;;;4931524;29;19946;-68
2021/03/16 05:45:27;;;;;;;;;;;;;;;;;;4924111;29;19927;-68
2021/03/16 05:47:53;;;;;;;;;;;;;;;;;;4931995;29;19946;-68
2021/03/16 05:50:20;;;;;;;;;;;;;;;;;;4934084;29;20066;-68
2021/03/16 05:52:46;;;;;;;;;;;;;;;;;;4935650;29;20380;-68
2021/03/16 05:55:13;;;;;;;;;;;;;;;;;;4932524;29;19927;-68
2021/03/16 05:57:39;;;;;;;;;;;;;;;;;;4931150;29;19962;-68
2021/03/16 06:00:06;;;;;;;;;;;;;;;;;;4925705;29;20387;-68
2021/03/16 06:02:32;;;;;;;;;;;;;;;;;;4926615;29;19927;-68
2021/03/16 06:04:59;;;;;;;;;;;;;;;;;;4930628;29;20025;-68
2021/03/16 06:07:25;;;;;;;;;;;;;;;;;;4928406;29;20307;-68
2021/03/16 06:09:52;;;;;;;;;;;;;;;;;;4935287;29;19927;-68
2021/03/16 06:12:18;;;;;;;;;;;;;;;;;;4931433;29;19933;-68
2021/03/16 06:14:45;;;;;;;;;;;;;;;;;;4925879;29;19993;-68
2021/03/16 06:17:11;;;;;;;;;;;;;;;;;;4933717;29;20332;-68
2021/03/16 06:19:38;;;;;;;;;;;;;;;;;;4928444;29;19978;-68
2021/03/16 06:22:04;;;;;;;;;;;;;;;;;;4933518;29;19927;-68
2021/03/16 06:24:30;;;;;;;;;;;;;;;;;;4919837;29;19931;-68
2021/03/16 06:26:57;;;;;;;;;;;;;;;;;;4926908;29;19927;-68
2021/03/16 06:29:23;;;;;;;;;;;;;;;;;;4931535;29;20450;-69
2021/03/16 06:31:50;;;;;;;;;;;;;;;;;;4935209;29;19930;-69
2021/03/16 06:34:16;;;;;;;;;;;;;;;;;;4932675;29;19927;-69
2021/03/16 06:36:43;;;;;;;;;;;;;;;;;;4930162;29;19931;-69
2021/03/16 06:39:09;;;;;;;;;;;;;;;;;;4933304;29;19927;-69
2021/03/16 06:41:36;;;;;;;;;;;;;;;;;;4930651;29;19934;-69
2021/03/16 06:44:03;;;;;;;;;;;;;;;;;;4925178;29;19927;-67
2021/03/16 06:46:29;;;;;;;;;;;;;;;;;;4925956;29;19974;-69
2021/03/16 06:48:56;;;;;;;;;;;;;;;;;;4928714;29;19927;-67
2021/03/16 06:51:22;;;;;;;;;;;;;;;;;;4929354;29;20315;-69
2021/03/16 06:53:49;;;;;;;;;;;;;;;;;;4924169;29;19939;-69
2021/03/16 06:56:15;;;;;;;;;;;;;;;;;;4927496;29;20392;-68
2021/03/16 06:58:42;;;;;;;;;;;;;;;;;;4926742;29;19931;-68
2021/03/16 07:01:08;;;;;;;;;;;;;;;;;;4929118;29;19945;-70
2021/03/16 07:03:35;;;;;;;;;;;;;;;;;;4921873;29;19931;-69
2021/03/16 07:06:01;;;;;;;;;;;;;;;;;;4919603;29;19927;-69
2021/03/16 07:08:28;;;;;;;;;;;;;;;;;;4926831;29;19985;-69
2021/03/16 07:10:54;;;;;;;;;;;;;;;;;;4919666;29;20189;-69
2021/03/16 07:13:22;;;;;;;;;;;;;;;;;;4927337;29;20422;-69
2021/03/16 07:15:54;;;;;;;;;;;;;;;;;;4933370;29;20023;-69
2021/03/16 07:18:20;;;;;;;;;;;;;;;;;;4927522;29;20009;-69
2021/03/16 07:20:47;;;;;;;;;;;;;;;;;;4924436;29;20238;-69
2021/03/16 07:23:13;;;;;;;;;;;;;;;;;;4924107;29;19970;-69
2021/03/16 07:25:40;;;;;;;;;;;;;;;;;;4924982;29;19933;-69
2021/03/16 07:28:06;;;;;;;;;;;;;;;;;;4924950;29;19970;-69
2021/03/16 07:30:33;;;;;;;;;;;;;;;;;;4929830;29;19927;-69
2021/03/16 07:32:59;;;;;;;;;;;;;;;;;;4925396;29;19927;-69
2021/03/16 07:35:26;;;;;;;;;;;;;;;;;;4923094;29;19993;-69
2021/03/16 07:37:52;;;;;;;;;;;;;;;;;;4928976;29;20048;-68
2021/03/16 07:40:19;;;;;;;;;;;;;;;;;;4930081;29;19927;-68
2021/03/16 07:42:45;;;;;;;;;;;;;;;;;;4923613;29;20395;-69
2021/03/16 07:45:12;;;;;;;;;;;;;;;;;;4928346;29;20013;-69
2021/03/16 07:47:38;;;;;;;;;;;;;;;;;;4925784;29;19941;-70
2021/03/16 07:50:05;;;;;;;;;;;;;;;;;;4927567;29;20065;-69
2021/03/16 07:52:31;;;;;;;;;;;;;;;;;;4929439;29;19927;-69
2021/03/16 07:54:58;;;;;;;;;;;;;;;;;;4924178;29;20303;-69
2021/03/16 07:57:24;;;;;;;;;;;;;;;;;;4926822;29;20400;-69
2021/03/16 07:59:51;;;;;;;;;;;;;;;;;;4929015;29;20018;-69
2021/03/16 08:02:17;;;;;;;;;;;;;;;;;;4925626;29;20013;-69
2021/03/16 08:04:44;;;;;;;;;;;;;;;;;;4927123;29;20273;-68
2021/03/16 08:07:12;;;;;;;;;;;;;;;;;;4925655;29;20027;-69
2021/03/16 08:09:38;;;;;;;;;;;;;;;;;;4926090;29;20218;-69
2021/03/16 08:12:05;;;;;;;;;;;;;;;;;;4930756;29;20086;-69
2021/03/16 08:14:33;;;;;;;;;;;;;;;;;;4925981;29;20339;-69
2021/03/16 08:17:00;;;;;;;;;;;;;;;;;;4929198;29;20360;-69
2021/03/16 08:19:26;;;;;;;;;;;;;;;;;;4926289;29;20323;-69
2021/03/16 08:21:53;;;;;;;;;;;;;;;;;;4928052;29;19931;-69
2021/03/16 08:24:19;;;;;;;;;;;;;;;;;;4923850;29;19962;-69
2021/03/16 08:26:46;;;;;;;;;;;;;;;;;;4926775;29;20022;-70
2021/03/16 08:29:12;;;;;;;;;;;;;;;;;;4926649;29;19974;-69
2021/03/16 08:31:39;;;;;;;;;;;;;;;;;;4929231;29;20032;-69
2021/03/16 08:34:05;;;;;;;;;;;;;;;;;;4925685;29;20124;-69
2021/03/16 08:36:32;;;;;;;;;;;;;;;;;;4927174;29;20015;-69
2021/03/16 08:38:58;;;;;;;;;;;;;;;;;;4930384;29;19966;-68
2021/03/16 08:41:25;;;;;;;;;;;;;;;;;;4923473;29;19927;-70
2021/03/16 08:43:51;;;;;;;;;;;;;;;;;;4927117;29;19957;-69
2021/03/16 08:46:18;;;;;;;;;;;;;;;;;;4920163;29;19927;-70
2021/03/16 08:48:44;;;;;;;;;;;;;;;;;;4927242;29;19927;-68
2021/03/16 08:51:11;;;;;;;;;;;;;;;;;;4927534;29;20342;-68
2021/03/16 08:53:37;;;;;;;;;;;;;;;;;;4926471;29;20092;-68
2021/03/16 08:56:04;;;;;;;;;;;;;;;;;;4927858;29;19927;-68
2021/03/16 08:58:30;;;;;;;;;;;;;;;;;;4931332;29;19993;-69
2021/03/16 09:00:57;;;;;;;;;;;;;;;;;;4929616;29;19926;-69
2021/03/16 09:03:23;;;;;;;;;;;;;;;;;;4928648;29;19930;-70
2021/03/16 09:05:50;;;;;;;;;;;;;;;;;;4931242;29;19955;-69
2021/03/16 09:08:17;;;;;;;;;;;;;;;;;;4932721;29;20013;-69
2021/03/16 09:10:43;;;;;;;;;;;;;;;;;;4921711;29;19938;-69
2021/03/16 09:13:10;;;;;;;;;;;;;;;;;;4926401;29;19970;-69
2021/03/16 09:15:36;;;;;;;;;;;;;;;;;;4935210;29;19927;-69
2021/03/16 09:18:03;;;;;;;;;;;;;;;;;;4932271;29;20314;-69
2021/03/16 09:20:29;;;;;;;;;;;;;;;;;;4926241;29;19931;-69
2021/03/16 09:22:56;;;;;;;;;;;;;;;;;;4925896;29;19927;-69
2021/03/16 09:25:22;;;;;;;;;;;;;;;;;;4927024;29;19931;-69
2021/03/16 09:27:49;;;;;;;;;;;;;;;;;;4931394;29;19963;-69
2021/03/16 09:30:15;;;;;;;;;;;;;;;;;;4933663;29;20018;-68
2021/03/16 09:32:42;;;;;;;;;;;;;;;;;;4929989;29;20371;-69
2021/03/16 09:35:08;;;;;;;;;;;;;;;;;;4927938;29;19927;-69
2021/03/16 09:37:35;;;;;;;;;;;;;;;;;;4932458;29;20029;-69
2021/03/16 09:40:01;;;;;;;;;;;;;;;;;;4930411;29;19991;-68
2021/03/16 09:42:28;;;;;;;;;;;;;;;;;;4930751;29;20698;-69
2021/03/16 09:44:57;;;;;;;;;;;;;;;;;;4934498;29;19927;-68
2021/03/16 09:47:24;;;;;;;;;;;;;;;;;;4934331;29;20319;-68
2021/03/16 09:49:50;;;;;;;;;;;;;;;;;;4963166;23;19933;-65
2021/03/16 09:52:17;;;;;;;;;;;;;;;;;;4950333;29;19974;-65
2021/03/16 09:54:43;;;;;;;;;;;;;;;;;;4956380;28;20327;-65
2021/03/16 09:57:10;;;;;;;;;;;;;;;;;;4954769;28;20342;-65
2021/03/16 09:59:36;;;;;;;;;;;;;;;;;;4952207;28;19933;-65
2021/03/16 10:02:03;;;;;;;;;;;;;;;;;;4951448;28;19966;-64
2021/03/16 10:04:30;;;;;;;;;;;;;;;;;;4952048;28;20320;-64
2021/03/16 10:06:56;;;;;;;;;;;;;;;;;;4943446;29;19931;-64
2021/03/16 10:09:23;;;;;;;;;;;;;;;;;;4946058;28;19990;-65
2021/03/16 10:11:49;;;;;;;;;;;;;;;;;;4945866;29;19958;-65
2021/03/16 10:14:16;;;;;;;;;;;;;;;;;;4943312;28;19937;-65
2021/03/16 10:16:42;;;;;;;;;;;;;;;;;;4947040;28;20395;-64
2021/03/16 10:19:09;;;;;;;;;;;;;;;;;;4948648;28;20332;-65
2021/03/16 10:21:35;;;;;;;;;;;;;;;;;;4952680;28;20294;-65
2021/03/16 10:24:04;;;;;;;;;;;;;;;;;;4948687;28;19979;-64
2021/03/16 10:26:30;;;;;;;;;;;;;;;;;;4946628;29;19930;-64
2021/03/16 10:28:57;;;;;;;;;;;;;;;;;;4946841;28;19926;-64
2021/03/16 10:31:23;;;;;;;;;;;;;;;;;;4945566;28;20340;-65
2021/03/16 10:33:50;;;;;;;;;;;;;;;;;;4946619;28;20017;-65
2021/03/16 10:36:16;;;;;;;;;;;;;;;;;;4946045;28;19962;-64
2021/03/16 10:38:43;;;;;;;;;;;;;;;;;;4942599;28;19927;-65
2021/03/16 10:41:09;;;;;;;;;;;;;;;;;;4946729;28;20003;-65
2021/03/16 10:43:36;;;;;;;;;;;;;;;;;;4952304;28;20013;-65
2021/03/16 10:46:02;;;;;;;;;;;;;;;;;;4955404;28;20379;-65
2021/03/16 10:48:29;;;;;;;;;;;;;;;;;;4952985;28;19957;-66
2021/03/16 10:50:55;;;;;;;;;;;;;;;;;;4956634;28;20024;-65
2021/03/16 10:53:24;;;;;;;;;;;;;;;;;;4954371;28;19930;-65
2021/03/16 10:55:51;;;;;;;;;;;;;;;;;;4952363;28;19931;-65
2021/03/16 10:58:17;;;;;;;;;;;;;;;;;;4951905;28;19965;-66
2021/03/16 11:00:45;;;;;;;;;;;;;;;;;;4951614;28;20010;-66
2021/03/16 11:03:11;;;;;;;;;;;;;;;;;;4948535;28;20021;-66
2021/03/16 11:05:38;;;;;;;;;;;;;;;;;;4952292;29;20021;-66
2021/03/16 11:08:04;;;;;;;;;;;;;;;;;;4949386;28;20294;-66
2021/03/16 11:10:31;;;;;;;;;;;;;;;;;;4958050;28;20383;-65
2021/03/16 11:12:57;;;;;;;;;;;;;;;;;;4949866;28;20295;-66
2021/03/16 11:15:24;;;;;;;;;;;;;;;;;;4948714;28;20014;-66
2021/03/16 11:17:50;;;;;;;;;;;;;;;;;;4949182;28;19941;-66
2021/03/16 11:20:17;;;;;;;;;;;;;;;;;;4950841;28;19938;-66
2021/03/16 11:22:43;;;;;;;;;;;;;;;;;;4955647;28;19962;-67
2021/03/16 11:25:10;;;;;;;;;;;;;;;;;;4952614;28;20306;-68
2021/03/16 11:27:36;;;;;;;;;;;;;;;;;;4947813;28;19996;-67
2021/03/16 11:30:03;;;;;;;;;;;;;;;;;;4943479;28;19970;-66
2021/03/16 11:32:29;;;;;;;;;;;;;;;;;;4947183;29;19939;-67
2021/03/16 11:34:56;;;;;;;;;;;;;;;;;;4951579;28;19993;-67
2021/03/16 11:37:22;;;;;;;;;;;;;;;;;;4953205;28;19974;-68
2021/03/16 11:39:49;;;;;;;;;;;;;;;;;;4955044;28;19926;-67
2021/03/16 11:42:16;;;;;;;;;;;;;;;;;;4948941;28;20420;-67
2021/03/16 11:44:43;;;;;;;;;;;;;;;;;;4953427;28;19927;-67
2021/03/16 11:47:09;;;;;;;;;;;;;;;;;;4943541;28;20034;-67
2021/03/16 11:49:36;;;;;;;;;;;;;;;;;;4950506;28;19949;-66
2021/03/16 11:52:02;;;;;;;;;;;;;;;;;;4966053;29;19926;-67
2021/03/16 11:54:29;;;;;;;;;;;;;;;;;;4972382;28;19982;-66
2021/03/16 11:56:55;;;;;;;;;;;;;;;;;;4966986;28;19954;-67
2021/03/16 11:59:22;;;;;;;;;;;;;;;;;;4958887;28;20051;-66
2021/03/16 12:01:50;;;;;;;;;;;;;;;;;;4946986;28;20224;-66
2021/03/16 12:04:17;;;;;;;;;;;;;;;;;;4953046;28;19927;-66
2021/03/16 12:06:43;;;;;;;;;;;;;;;;;;4951519;28;20379;-66
2021/03/16 12:09:10;;;;;;;;;;;;;;;;;;4947621;28;19966;-65
2021/03/16 12:11:37;;;;;;;;;;;;;;;;;;4947392;28;19930;-66
2021/03/16 12:14:04;;;;;;;;;;;;;;;;;;4950840;28;19933;-65
2021/03/16 12:16:31;;;;;;;;;;;;;;;;;;4950401;29;19927;-65
2021/03/16 12:18:57;;;;;;;;;;;;;;;;;;4949861;29;19980;-64
2021/03/16 12:21:24;;;;;;;;;;;;;;;;;;4953147;28;19949;-66
2021/03/16 12:23:50;;;;;;;;;;;;;;;;;;4952090;29;19927;-64
2021/03/16 12:26:17;;;;;;;;;;;;;;;;;;4956075;28;20006;-65
2021/03/16 12:28:44;;;;;;;;;;;;;;;;;;4950352;28;21379;-65
2021/03/16 12:31:10;;;;;;;;;;;;;;;;;;4960655;28;19926;-65
2021/03/16 12:33:37;;;;;;;;;;;;;;;;;;4952000;28;20066;-66
2021/03/16 12:36:03;;;;;;;;;;;;;;;;;;4960642;28;20027;-66
2021/03/16 12:38:30;;;;;;;;;;;;;;;;;;4956872;28;19930;-66
2021/03/16 12:40:57;;;;;;;;;;;;;;;;;;4956721;28;20264;-66
2021/03/16 12:43:23;;;;;;;;;;;;;;;;;;4956586;28;19927;-65
2021/03/16 12:45:50;;;;;;;;;;;;;;;;;;4956604;28;19934;-67
2021/03/16 12:48:16;;;;;;;;;;;;;;;;;;4957072;28;20001;-65
2021/03/16 12:50:43;;;;;;;;;;;;;;;;;;4965769;28;19934;-66
2021/03/16 12:53:10;;;;;;;;;;;;;;;;;;4973813;28;19961;-65
2021/03/16 12:55:36;;;;;;;;;;;;;;;;;;4962592;28;19934;-66
2021/03/16 12:58:03;;;;;;;;;;;;;;;;;;4960657;29;19974;-65
2021/03/16 13:00:29;;;;;;;;;;;;;;;;;;4967952;28;19976;-65
2021/03/16 13:02:56;;;;;;;;;;;;;;;;;;4986014;28;19930;-65
2021/03/16 13:05:22;;;;;;;;;;;;;;;;;;4979191;28;19927;-65
2021/03/16 13:07:49;;;;;;;;;;;;;;;;;;4971646;28;19926;-65
2021/03/16 13:10:16;;;;;;;;;;;;;;;;;;4968882;28;20413;-66
2021/03/16 13:12:42;;;;;;;;;;;;;;;;;;4955548;28;19934;-65
2021/03/16 13:15:09;;;;;;;;;;;;;;;;;;4955701;28;19934;-66
2021/03/16 13:17:36;;;;;;;;;;;;;;;;;;4955552;28;19927;-66
2021/03/16 13:20:03;;;;;;;;;;;;;;;;;;4937050;28;20402;-66
2021/03/16 13:22:29;;;;;;;;;;;;;;;;;;4941130;29;20401;-64
2021/03/16 13:24:56;;;;;;;;;;;;;;;;;;4954585;28;20347;-67
2021/03/16 13:27:22;;;;;;;;;;;;;;;;;;4950571;29;19926;-65
2021/03/16 13:29:49;;;;;;;;;;;;;;;;;;4950976;28;19927;-66
2021/03/16 13:32:16;;;;;;;;;;;;;;;;;;4955339;28;19974;-66
2021/03/16 13:34:42;;;;;;;;;;;;;;;;;;4953497;28;21033;-66
2021/03/16 13:37:09;;;;;;;;;;;;;;;;;;4953908;28;20390;-65
2021/03/16 13:39:35;;;;;;;;;;;;;;;;;;4956962;28;19985;-67
2021/03/16 13:42:01;;;;;;;;;;;;;;;;;;4952376;28;19934;-65
2021/03/16 13:44:28;;;;;;;;;;;;;;;;;;4945978;28;20026;-65
2021/03/16 13:46:55;;;;;;;;;;;;;;;;;;4954424;28;20027;-65
2021/03/16 13:49:22;;;;;;;;;;;;;;;;;;4954809;28;19988;-65
2021/03/16 13:51:48;;;;;;;;;;;;;;;;;;4954953;28;20025;-64
2021/03/16 13:54:15;;;;;;;;;;;;;;;;;;4955297;28;19994;-65
2021/03/16 13:56:41;;;;;;;;;;;;;;;;;;4944532;28;20021;-65
2021/03/16 13:59:08;;;;;;;;;;;;;;;;;;4948406;28;19981;-65
2021/03/16 14:01:34;;;;;;;;;;;;;;;;;;4955002;28;20302;-64
2021/03/16 14:04:01;;;;;;;;;;;;;;;;;;4953086;29;19941;-66
2021/03/16 14:06:28;;;;;;;;;;;;;;;;;;4949957;28;19930;-66
2021/03/16 14:08:54;;;;;;;;;;;;;;;;;;4950792;28;20646;-66
2021/03/16 14:11:21;;;;;;;;;;;;;;;;;;4953887;28;20003;-67
2021/03/16 14:13:47;;;;;;;;;;;;;;;;;;4954394;29;19933;-66
2021/03/16 14:16:14;;;;;;;;;;;;;;;;;;4956748;28;19927;-66
2021/03/16 14:18:40;;;;;;;;;;;;;;;;;;4953597;28;19969;-67
2021/03/16 14:21:07;;;;;;;;;;;;;;;;;;4958439;28;20395;-66
2021/03/16 14:23:33;;;;;;;;;;;;;;;;;;4955754;28;20404;-66
2021/03/16 14:26:00;;;;;;;;;;;;;;;;;;4954260;28;19970;-66
2021/03/16 14:28:26;;;;;;;;;;;;;;;;;;4951042;29;19953;-65
2021/03/16 14:30:53;;;;;;;;;;;;;;;;;;4960117;28;19955;-66
2021/03/16 14:33:19;;;;;;;;;;;;;;;;;;4953123;29;19973;-68
2021/03/16 14:35:47;;;;;;;;;;;;;;;;;;4955498;28;19926;-66
2021/03/16 14:38:14;;;;;;;;;;;;;;;;;;4956532;28;19954;-67
2021/03/16 14:40:40;;;;;;;;;;;;;;;;;;4953110;28;20020;-67
2021/03/16 14:43:07;;;;;;;;;;;;;;;;;;4950435;29;20017;-66
2021/03/16 14:45:33;;;;;;;;;;;;;;;;;;4957875;28;19933;-67
2021/03/16 14:48:00;;;;;;;;;;;;;;;;;;4955845;28;20021;-67
2021/03/16 14:50:26;;;;;;;;;;;;;;;;;;4954696;28;20032;-67
2021/03/16 14:52:53;;;;;;;;;;;;;;;;;;4950038;28;19974;-68
2021/03/16 14:55:19;;;;;;;;;;;;;;;;;;4955022;28;19926;-67
2021/03/16 14:57:46;;;;;;;;;;;;;;;;;;4948526;28;19927;-66
2021/03/16 15:00:12;;;;;;;;;;;;;;;;;;4947347;29;20334;-67
2021/03/16 15:02:39;;;;;;;;;;;;;;;;;;4951779;28;19956;-69
2021/03/16 15:05:05;;;;;;;;;;;;;;;;;;4949583;28;19934;-67
2021/03/16 15:07:32;;;;;;;;;;;;;;;;;;4947504;28;19957;-67
2021/03/16 15:09:58;;;;;;;;;;;;;;;;;;4949089;28;19931;-67
2021/03/16 15:12:25;;;;;;;;;;;;;;;;;;4944873;28;20040;-67
2021/03/16 15:14:51;;;;;;;;;;;;;;;;;;4948354;28;19926;-67
2021/03/16 15:17:18;;;;;;;;;;;;;;;;;;4948458;29;20527;-67
2021/03/16 15:19:44;;;;;;;;;;;;;;;;;;4946192;28;19937;-67
2021/03/16 15:22:11;;;;;;;;;;;;;;;;;;4950139;28;19926;-67
2021/03/16 15:24:39;;;;;;;;;;;;;;;;;;4946988;29;19927;-68
2021/03/16 15:27:05;;;;;;;;;;;;;;;;;;4946502;28;19931;-68
2021/03/16 15:29:32;;;;;;;;;;;;;;;;;;4949694;29;19997;-67
2021/03/16 15:31:58;;;;;;;;;;;;;;;;;;4947507;29;20193;-68
2021/03/16 15:34:25;;;;;;;;;;;;;;;;;;4947800;28;19934;-68
2021/03/16 15:36:51;;;;;;;;;;;;;;;;;;4944036;28;20014;-67
2021/03/16 15:39:18;;;;;;;;;;;;;;;;;;4949763;29;19927;-68
2021/03/16 15:41:44;;;;;;;;;;;;;;;;;;4945161;29;20188;-68
2021/03/16 15:44:11;;;;;;;;;;;;;;;;;;4952274;28;20018;-67
2021/03/16 15:46:37;;;;;;;;;;;;;;;;;;4947814;28;19937;-67
2021/03/16 15:49:04;;;;;;;;;;;;;;;;;;4970328;23;19926;-69
2021/03/16 15:51:30;;;;;;;;;;;;;;;;;;4963334;28;20301;-68
2021/03/16 15:53:57;;;;;;;;;;;;;;;;;;4967640;28;20005;-68
2021/03/16 15:56:23;;;;;;;;;;;;;;;;;;4964758;28;19926;-69
2021/03/16 15:58:50;;;;;;;;;;;;;;;;;;4957889;28;20370;-65
2021/03/16 16:01:17;;;;;;;;;;;;;;;;;;4944863;29;19926;-65
2021/03/16 16:03:44;;;;;;;;;;;;;;;;;;4947874;28;19927;-65
2021/03/16 16:06:10;;;;;;;;;;;;;;;;;;4946125;29;19926;-65
2021/03/16 16:08:37;;;;;;;;;;;;;;;;;;4947338;28;19981;-65
2021/03/16 16:11:03;;;;;;;;;;;;;;;;;;4944659;29;19982;-65
2021/03/16 16:13:30;;;;;;;;;;;;;;;;;;4949574;28;20339;-68
2021/03/16 16:15:56;;;;;;;;;;;;;;;;;;4942948;28;19942;-68
2021/03/16 16:18:22;;;;;;;;;;;;;;;;;;4946791;28;20454;-68
2021/03/16 16:20:49;;;;;;;;;;;;;;;;;;4947962;28;20016;-67
2021/03/16 16:23:15;;;;;;;;;;;;;;;;;;4945982;29;19931;-68
2021/03/16 16:25:43;;;;;;;;;;;;;;;;;;4946573;28;20009;-68
2021/03/16 16:28:11;;;;;;;;;;;;;;;;;;4954162;29;19934;-68
2021/03/16 16:30:37;;;;;;;;;;;;;;;;;;4953830;29;19973;-68
2021/03/16 16:33:04;;;;;;;;;;;;;;;;;;4947588;29;20014;-68
2021/03/16 16:35:30;;;;;;;;;;;;;;;;;;4945922;28;19937;-68
2021/03/16 16:37:57;;;;;;;;;;;;;;;;;;4944106;28;20021;-68
2021/03/16 16:40:23;;;;;;;;;;;;;;;;;;4943386;28;19972;-68